Time;durP1;ratioP1;P1;durP2;ratioP2;P2;SDS_P1;SDS_P2;PMS_P1;PMS_P2;Temp;Humidity;BMP_temperature;BMP_pressure;BME280_temperature;BME280_humidity;BME280_pressure;Samples;Min_cycle;Max_cycle;Signal;HPM_P1;HPM_P2
2023/12/19 00:00:54;;;;;;;20.95;7.68;;;9.90;99.90;;;;;;5052747;28;20049;-71
2023/12/19 00:03:20;;;;;;;24.63;7.95;;;9.90;99.90;;;;;;5052214;28;20455;-71
2023/12/19 00:05:46;;;;;;;26.50;9.10;;;9.80;99.90;;;;;;5050771;28;20049;-71
2023/12/19 00:08:11;;;;;;;27.15;8.82;;;9.70;99.90;;;;;;5052120;28;20045;-71
2023/12/19 00:10:37;;;;;;;26.38;8.52;;;9.70;99.90;;;;;;5051739;28;20496;-71
2023/12/19 00:13:03;;;;;;;25.30;7.93;;;9.60;99.90;;;;;;5050089;28;20052;-71
2023/12/19 00:15:28;;;;;;;22.42;8.85;;;9.70;99.90;;;;;;5051519;28;20045;-71
2023/12/19 00:17:54;;;;;;;22.15;9.35;;;9.80;99.90;;;;;;5051235;28;20057;-71
2023/12/19 00:20:20;;;;;;;24.88;9.02;;;9.60;99.90;;;;;;5050079;28;20045;-71
2023/12/19 00:22:46;;;;;;;23.25;8.75;;;9.50;99.90;;;;;;5050743;28;20048;-71
2023/12/19 00:25:11;;;;;;;27.23;10.75;;;9.70;99.90;;;;;;5051024;28;20544;-71
2023/12/19 00:27:37;;;;;;;23.10;9.77;;;9.50;99.90;;;;;;5050167;28;20045;-71
2023/12/19 00:30:03;;;;;;;17.75;8.40;;;9.60;99.90;;;;;;5052012;28;20124;-72
2023/12/19 00:32:28;;;;;;;26.75;10.13;;;9.50;99.90;;;;;;5052639;28;20048;-71
2023/12/19 00:34:54;;;;;;;22.25;9.50;;;9.50;99.90;;;;;;5050871;28;20048;-71
2023/12/19 00:37:20;;;;;;;20.27;10.40;;;9.40;99.90;;;;;;5054344;28;20472;-71
2023/12/19 00:39:45;;;;;;;17.38;9.20;;;9.50;99.90;;;;;;5055152;28;20041;-71
2023/12/19 00:42:11;;;;;;;26.90;10.63;;;9.50;99.90;;;;;;5054383;28;20040;-71
2023/12/19 00:44:37;;;;;;;23.75;10.95;;;9.40;99.90;;;;;;5055151;28;20106;-71
2023/12/19 00:47:03;;;;;;;25.23;11.85;;;9.40;99.90;;;;;;5054660;28;20045;-71
2023/12/19 00:49:30;;;;;;;26.30;12.50;;;9.30;99.90;;;;;;5054422;28;20053;-71
2023/12/19 00:51:55;;;;;;;31.23;13.25;;;9.40;99.90;;;;;;5054413;28;20052;-71
2023/12/19 00:54:21;;;;;;;23.30;11.65;;;9.30;99.90;;;;;;5053474;28;20052;-71
2023/12/19 00:56:47;;;;;;;20.00;10.60;;;9.40;99.90;;;;;;5052793;28;20045;-71
2023/12/19 00:59:13;;;;;;;24.15;11.57;;;9.50;99.90;;;;;;5054794;28;20090;-71
2023/12/19 01:01:38;;;;;;;20.40;11.45;;;9.70;99.90;;;;;;5053444;28;20033;-71
2023/12/19 01:04:04;;;;;;;18.80;9.63;;;9.40;99.90;;;;;;5054652;28;20049;-71
2023/12/19 01:06:31;;;;;;;20.40;9.90;;;9.50;99.90;;;;;;5055736;28;20557;-71
2023/12/19 01:08:57;;;;;;;19.08;9.90;;;9.40;99.90;;;;;;5054096;28;20194;-71
2023/12/19 01:11:22;;;;;;;13.98;8.80;;;9.30;99.90;;;;;;5054310;28;20136;-71
2023/12/19 01:13:48;;;;;;;21.10;9.27;;;9.70;99.90;;;;;;5054187;28;20488;-71
2023/12/19 01:16:14;;;;;;;15.63;8.35;;;9.30;99.90;;;;;;5053465;28;20037;-71
2023/12/19 01:18:40;;;;;;;15.70;9.30;;;9.30;99.90;;;;;;5054314;28;20060;-71
2023/12/19 01:21:05;;;;;;;15.15;7.78;;;9.30;99.90;;;;;;5054947;28;20037;-71
2023/12/19 01:23:31;;;;;;;16.05;10.10;;;9.50;99.90;;;;;;5054926;28;20048;-71
2023/12/19 01:25:57;;;;;;;14.85;9.35;;;9.40;99.90;;;;;;5054316;28;20044;-71
2023/12/19 01:28:22;;;;;;;15.23;9.30;;;9.30;99.90;;;;;;5055219;28;20049;-71
2023/12/19 01:30:48;;;;;;;14.57;8.27;;;9.30;99.90;;;;;;5054164;28;20048;-71
2023/12/19 01:33:14;;;;;;;17.42;9.88;;;9.30;99.90;;;;;;5053600;28;20045;-71
2023/12/19 01:35:48;;;;;;;12.65;7.85;;;9.30;99.90;;;;;;5053966;28;20052;-71
2023/12/19 01:38:14;;;;;;;14.73;8.55;;;9.30;99.90;;;;;;5053265;28;20089;-71
2023/12/19 01:40:40;;;;;;;16.17;9.63;;;9.30;99.90;;;;;;5055419;28;20060;-71
2023/12/19 01:43:18;;;;;;;15.98;8.63;;;9.20;99.90;;;;;;5053887;28;20045;-71
2023/12/19 01:45:43;;;;;;;14.35;8.57;;;9.60;99.90;;;;;;5053101;28;20106;-71
2023/12/19 01:48:09;;;;;;;14.55;9.52;;;9.20;99.90;;;;;;5053466;28;20045;-71
2023/12/19 01:50:35;;;;;;;15.25;9.50;;;9.30;99.90;;;;;;5053824;28;20512;-71
2023/12/19 01:53:01;;;;;;;16.05;9.57;;;9.20;99.90;;;;;;5053584;28;20076;-71
2023/12/19 01:55:28;;;;;;;12.15;7.78;;;9.50;99.90;;;;;;5053751;28;20045;-71
2023/12/19 01:57:54;;;;;;;14.20;8.60;;;9.50;99.90;;;;;;5052869;28;20060;-71
2023/12/19 02:00:21;;;;;;;17.88;10.48;;;9.20;99.90;;;;;;5053187;28;20503;-71
2023/12/19 02:02:50;;;;;;;16.05;8.95;;;9.20;99.90;;;;;;5053677;28;20045;-71
2023/12/19 02:05:16;;;;;;;14.07;9.13;;;9.40;99.90;;;;;;5052727;28;20530;-71
2023/12/19 02:07:46;;;;;;;15.70;9.65;;;9.30;99.90;;;;;;5053155;28;20563;-70
2023/12/19 02:10:12;;;;;;;16.02;9.52;;;9.30;99.90;;;;;;5053513;28;20299;-71
2023/12/19 02:12:38;;;;;;;15.68;9.50;;;9.50;99.90;;;;;;5052621;28;20131;-71
2023/12/19 02:15:05;;;;;;;15.27;10.13;;;9.30;99.90;;;;;;5053074;28;20120;-71
2023/12/19 02:17:31;;;;;;;13.82;8.25;;;9.30;99.90;;;;;;5053361;28;20087;-71
2023/12/19 02:19:56;;;;;;;13.93;9.00;;;9.30;99.90;;;;;;5052800;28;20049;-71
2023/12/19 02:22:22;;;;;;;14.13;9.40;;;9.50;99.90;;;;;;5054506;28;20477;-71
2023/12/19 02:24:48;;;;;;;11.73;7.45;;;9.30;99.90;;;;;;5054480;28;20033;-71
2023/12/19 02:27:14;;;;;;;14.65;9.20;;;9.30;99.90;;;;;;5051433;28;20044;-71
2023/12/19 02:29:40;;;;;;;13.35;8.13;;;9.30;99.90;;;;;;5053110;28;20503;-71
2023/12/19 02:32:06;;;;;;;14.95;9.07;;;9.30;99.90;;;;;;5052729;28;20056;-71
2023/12/19 02:34:32;;;;;;;9.50;6.53;;;9.20;99.90;;;;;;5052393;28;20387;-71
2023/12/19 02:36:57;;;;;;;12.48;7.60;;;9.30;99.90;;;;;;5052312;28;20061;-71
2023/12/19 02:39:23;;;;;;;15.38;9.07;;;9.30;99.90;;;;;;5052617;28;20053;-71
2023/12/19 02:41:49;;;;;;;14.95;9.50;;;9.20;99.90;;;;;;5052071;28;20036;-71
2023/12/19 02:44:15;;;;;;;10.77;6.45;;;9.30;99.90;;;;;;5052295;28;20084;-71
2023/12/19 02:46:40;;;;;;;11.60;7.43;;;9.40;99.90;;;;;;5052364;28;20107;-71
2023/12/19 02:49:06;;;;;;;13.00;8.43;;;9.30;99.90;;;;;;5052015;28;20102;-71
2023/12/19 02:51:32;;;;;;;11.68;7.65;;;9.50;99.90;;;;;;5052562;28;20068;-71
2023/12/19 02:53:58;;;;;;;12.80;8.07;;;9.30;99.90;;;;;;5051967;28;20098;-71
2023/12/19 02:56:24;;;;;;;14.40;9.15;;;9.70;99.90;;;;;;5052379;28;20555;-71
2023/12/19 02:58:53;;;;;;;13.82;8.55;;;9.60;99.90;;;;;;5051761;28;20049;-71
2023/12/19 03:01:18;;;;;;;14.52;7.95;;;9.70;99.90;;;;;;5051562;28;20036;-71
2023/12/19 03:03:44;;;;;;;10.45;7.25;;;9.30;99.90;;;;;;5052270;28;20555;-71
2023/12/19 03:06:13;;;;;;;14.60;9.55;;;9.30;99.90;;;;;;5051754;28;20049;-71
2023/12/19 03:08:38;;;;;;;10.77;7.22;;;9.50;99.90;;;;;;5051575;28;20543;-71
2023/12/19 03:11:07;;;;;;;12.88;8.13;;;9.70;99.90;;;;;;5051974;28;20175;-71
2023/12/19 03:13:32;;;;;;;11.20;7.93;;;9.60;99.90;;;;;;5052182;28;20056;-71
2023/12/19 03:15:58;;;;;;;13.02;8.55;;;9.60;99.90;;;;;;5051320;28;20045;-71
2023/12/19 03:18:24;;;;;;;15.50;10.13;;;9.70;99.90;;;;;;5052520;28;20519;-71
2023/12/19 03:20:53;;;;;;;15.25;9.50;;;9.20;99.90;;;;;;5052001;28;20171;-71
2023/12/19 03:23:23;;;;;;;12.20;8.43;;;9.10;99.90;;;;;;5051032;28;20076;-71
2023/12/19 03:25:49;;;;;;;12.70;8.35;;;9.10;99.90;;;;;;5051878;28;20481;-71
2023/12/19 03:28:15;;;;;;;12.88;9.32;;;9.50;99.90;;;;;;5051508;28;20056;-71
2023/12/19 03:30:40;;;;;;;12.32;8.25;;;9.30;99.90;;;;;;5051351;28;20048;-71
2023/12/19 03:33:06;;;;;;;12.63;8.00;;;9.00;99.90;;;;;;5052959;28;20045;-71
2023/12/19 03:35:32;;;;;;;13.88;8.98;;;9.10;99.90;;;;;;5051398;28;20339;-71
2023/12/19 03:37:58;;;;;;;13.20;8.48;;;9.20;99.90;;;;;;5051007;28;20496;-71
2023/12/19 03:40:24;;;;;;;15.95;9.65;;;9.10;99.90;;;;;;5051844;28;20048;-71
2023/12/19 03:42:49;;;;;;;15.10;9.18;;;9.20;99.90;;;;;;5051604;28;20037;-71
2023/12/19 03:45:15;;;;;;;14.45;8.65;;;9.10;99.90;;;;;;5050488;28;20040;-71
2023/12/19 03:47:44;;;;;;;12.93;7.80;;;9.40;99.90;;;;;;5051439;28;20135;-71
2023/12/19 03:50:10;;;;;;;12.00;7.47;;;9.00;99.90;;;;;;5051230;28;20048;-71
2023/12/19 03:52:36;;;;;;;13.20;8.48;;;9.00;99.90;;;;;;5050942;28;20044;-71
2023/12/19 03:55:02;;;;;;;13.07;8.52;;;8.90;99.90;;;;;;5051323;28;20048;-71
2023/12/19 03:57:28;;;;;;;11.27;7.35;;;8.90;99.90;;;;;;5051057;28;20052;-72
2023/12/19 03:59:53;;;;;;;12.23;8.35;;;9.20;99.90;;;;;;5051642;28;20049;-72
2023/12/19 04:02:19;;;;;;;13.23;8.38;;;8.90;99.90;;;;;;5050552;28;20045;-72
2023/12/19 04:04:45;;;;;;;13.23;8.32;;;8.80;99.90;;;;;;5050572;28;20045;-71
2023/12/19 04:07:13;;;;;;;10.75;7.03;;;8.90;99.90;;;;;;5050978;28;20483;-71
2023/12/19 04:09:40;;;;;;;11.70;7.80;;;9.10;99.90;;;;;;5051584;28;20546;-71
2023/12/19 04:12:06;;;;;;;11.50;7.63;;;8.90;99.90;;;;;;5050509;28;20075;-71
2023/12/19 04:14:32;;;;;;;13.30;8.77;;;9.00;99.90;;;;;;5051323;28;20029;-71
2023/12/19 04:17:02;;;;;;;10.38;7.00;;;9.10;99.90;;;;;;5052558;28;20056;-71
2023/12/19 04:19:27;;;;;;;14.05;7.65;;;8.80;99.90;;;;;;5050853;28;20053;-71
2023/12/19 04:21:53;;;;;;;13.52;8.10;;;8.90;99.90;;;;;;5051583;28;20047;-71
2023/12/19 04:24:19;;;;;;;14.30;8.77;;;9.20;99.90;;;;;;5050655;28;20052;-71
2023/12/19 04:26:49;;;;;;;12.25;7.95;;;8.90;99.90;;;;;;5050207;28;20033;-71
2023/12/19 04:29:14;;;;;;;12.68;7.93;;;9.10;99.90;;;;;;5050984;28;20495;-71
2023/12/19 04:31:41;;;;;;;11.23;7.70;;;8.80;99.90;;;;;;5052278;28;20053;-71
2023/12/19 04:34:07;;;;;;;13.38;8.18;;;8.90;99.90;;;;;;5050187;28;20044;-71
2023/12/19 04:36:33;;;;;;;13.10;8.40;;;8.80;99.90;;;;;;5050963;28;20057;-71
2023/12/19 04:38:59;;;;;;;14.38;7.90;;;9.00;99.90;;;;;;5051119;28;20041;-71
2023/12/19 04:41:25;;;;;;;11.95;7.78;;;8.90;99.90;;;;;;5050083;28;20496;-71
2023/12/19 04:43:51;;;;;;;10.18;6.05;;;8.90;99.90;;;;;;5051132;28;20128;-71
2023/12/19 04:46:16;;;;;;;10.30;6.93;;;9.10;99.90;;;;;;5051763;28;20044;-71
2023/12/19 04:48:42;;;;;;;13.57;8.23;;;9.10;99.90;;;;;;5050162;28;20051;-71
2023/12/19 04:51:18;;;;;;;13.15;8.07;;;9.10;99.90;;;;;;5050919;28;20083;-71
2023/12/19 04:53:44;;;;;;;;;;;9.10;99.90;;;;;;5030597;28;20053;-71
2023/12/19 04:56:11;;;;;;;12.97;7.83;;;9.10;99.90;;;;;;5031112;28;20011;-71
2023/12/19 04:58:37;;;;;;;13.02;7.78;;;9.10;99.90;;;;;;5032271;28;20349;-71
2023/12/19 05:01:03;;;;;;;12.25;6.60;;;9.00;99.90;;;;;;5030359;28;20041;-71
2023/12/19 05:03:29;;;;;;;9.52;5.90;;;9.00;99.90;;;;;;5031452;28;20114;-71
2023/12/19 05:05:54;;;;;;;10.18;7.10;;;9.10;99.90;;;;;;5032317;28;20053;-71
2023/12/19 05:08:20;;;;;;;8.98;6.03;;;9.20;99.90;;;;;;5045176;28;20049;-71
2023/12/19 05:10:46;;;;;;;10.40;7.15;;;9.10;99.90;;;;;;5050732;28;20056;-71
2023/12/19 05:13:11;;;;;;;11.68;6.88;;;9.10;99.90;;;;;;5051606;28;20397;-71
2023/12/19 05:15:40;;;;;;;9.88;6.82;;;9.70;99.90;;;;;;5050066;28;20049;-71
2023/12/19 05:18:05;;;;;;;8.80;5.45;;;9.00;99.90;;;;;;5050478;28;20045;-71
2023/12/19 05:20:31;;;;;;;10.65;6.88;;;9.20;99.90;;;;;;5050629;28;20045;-71
2023/12/19 05:22:56;;;;;;;12.40;6.80;;;9.10;99.90;;;;;;5053499;28;20045;-71
2023/12/19 05:25:22;;;;;;;11.90;7.10;;;9.10;99.90;;;;;;5054393;28;20040;-72
2023/12/19 05:27:48;;;;;;;9.60;6.35;;;9.30;99.90;;;;;;5053869;28;20103;-71
2023/12/19 05:30:15;;;;;;;11.05;7.47;;;9.00;99.90;;;;;;5054054;28;20049;-71
2023/12/19 05:32:40;;;;;;;9.05;6.15;;;9.00;99.90;;;;;;5054109;28;20130;-71
2023/12/19 05:35:07;;;;;;;9.68;5.95;;;9.40;99.90;;;;;;5053201;28;20079;-71
2023/12/19 05:37:32;;;;;;;9.02;6.20;;;9.00;99.90;;;;;;5054620;28;20110;-71
2023/12/19 05:39:58;;;;;;;13.02;6.78;;;9.60;99.90;;;;;;5054003;28;20045;-71
2023/12/19 05:42:43;;;;;;;9.57;6.22;;;9.00;99.90;;;;;;5090305;27;20449;-71
2023/12/19 05:45:11;;;;;;;9.25;5.60;;;9.10;99.90;;;;;;5087780;28;20048;-71
2023/12/19 05:47:37;;;;;;;9.10;5.72;;;9.10;99.90;;;;;;5089187;28;20070;-71
2023/12/19 05:50:03;;;;;;;8.48;5.60;;;9.10;99.90;;;;;;5087761;28;20536;-71
2023/12/19 05:52:28;;;;;;;9.65;5.93;;;9.10;99.90;;;;;;5088721;28;20048;-71
2023/12/19 05:54:54;;;;;;;11.13;6.22;;;9.00;99.90;;;;;;5089056;28;20044;-71
2023/12/19 05:57:19;;;;;;;8.63;5.13;;;9.20;99.90;;;;;;5087149;28;20135;-69
2023/12/19 05:59:45;;;;;;;11.27;6.22;;;9.00;99.90;;;;;;5088654;28;20044;-71
2023/12/19 06:02:11;;;;;;;9.80;6.00;;;9.00;99.90;;;;;;5087576;28;20510;-70
2023/12/19 06:04:36;;;;;;;8.93;6.05;;;9.10;99.90;;;;;;5087535;28;20044;-71
2023/12/19 06:07:03;;;;;;;9.70;5.40;;;9.00;99.90;;;;;;5088065;28;20098;-70
2023/12/19 06:09:30;;;;;;;9.38;5.85;;;9.20;99.90;;;;;;5088670;28;20079;-70
2023/12/19 06:11:56;;;;;;;10.82;5.45;;;9.10;99.90;;;;;;5087669;28;20056;-69
2023/12/19 06:14:21;;;;;;;7.78;4.88;;;9.10;99.90;;;;;;5088489;28;20380;-73
2023/12/19 06:16:50;;;;;;;9.90;6.03;;;9.20;99.90;;;;;;5087885;28;20515;-73
2023/12/19 06:19:15;;;;;;;7.47;4.32;;;10.20;99.90;;;;;;5100679;28;20087;-72
2023/12/19 06:21:41;;;;;;;9.32;5.10;;;9.30;99.90;;;;;;5073535;28;20044;-70
2023/12/19 06:24:06;;;;;;;10.10;5.30;;;9.10;99.90;;;;;;5088069;28;20036;-71
2023/12/19 06:26:32;;;;;;;8.90;5.20;;;9.10;99.90;;;;;;5087503;28;20044;-71
2023/12/19 06:29:00;;;;;;;9.52;5.50;;;9.40;99.90;;;;;;5088418;28;20102;-74
2023/12/19 06:31:26;;;;;;;9.48;5.20;;;9.10;99.90;;;;;;5087548;28;20044;-73
2023/12/19 06:33:51;;;;;;;8.90;5.10;;;9.10;99.90;;;;;;5086580;28;20045;-71
2023/12/19 06:36:31;;;;;;;10.77;5.40;;;9.10;99.90;;;;;;5087766;28;20036;-70
2023/12/19 06:38:57;;;;;;;10.90;6.47;;;9.00;99.90;;;;;;5088208;28;20438;-70
2023/12/19 06:41:22;;;;;;;9.48;5.55;;;9.00;99.90;;;;;;5085992;28;20056;-69
2023/12/19 06:43:48;;;;;;;10.85;5.78;;;9.10;99.90;;;;;;5087626;28;20040;-69
2023/12/19 06:46:17;;;;;;;6.45;3.88;;;9.10;99.90;;;;;;5086873;28;20044;-70
2023/12/19 06:48:43;;;;;;;9.07;4.05;;;9.20;99.90;;;;;;5086922;28;20037;-70
2023/12/19 06:51:09;;;;;;;8.07;4.30;;;9.30;99.90;;;;;;5085608;28;20510;-70
2023/12/19 06:53:35;;;;;;;6.38;3.97;;;9.30;99.90;;;;;;5075387;28;20045;-70
2023/12/19 06:56:00;;;;;;;8.15;4.18;;;9.40;99.90;;;;;;5073834;28;20554;-70
2023/12/19 06:58:28;;;;;;;7.13;4.20;;;9.40;99.90;;;;;;5074057;28;20557;-70
2023/12/19 07:00:54;;;;;;;8.88;4.50;;;9.40;99.90;;;;;;5073033;28;20128;-70
2023/12/19 07:03:21;;;;;;;6.78;3.95;;;9.90;99.90;;;;;;5073142;28;20127;-70
2023/12/19 07:05:46;;;;;;;7.82;3.97;;;9.60;99.90;;;;;;5073563;28;20052;-70
2023/12/19 07:08:12;;;;;;;7.00;4.10;;;9.50;99.90;;;;;;5073050;28;20048;-70
2023/12/19 07:10:38;;;;;;;7.10;3.60;;;9.50;99.90;;;;;;5075210;28;20473;-71
2023/12/19 07:13:03;;;;;;;9.43;3.63;;;9.60;99.90;;;;;;5074160;28;20502;-70
2023/12/19 07:15:29;;;;;;;7.63;4.57;;;9.60;99.90;;;;;;5073279;28;20499;-70
2023/12/19 07:17:54;;;;;;;9.13;4.32;;;9.50;99.90;;;;;;5073704;28;20551;-70
2023/12/19 07:20:20;;;;;;;8.13;4.30;;;9.50;99.90;;;;;;5074530;28;20135;-70
2023/12/19 07:22:46;;;;;;;11.50;4.25;;;9.50;99.90;;;;;;5072777;28;20047;-71
2023/12/19 07:25:11;;;;;;;7.57;4.57;;;9.70;99.90;;;;;;5073138;28;20040;-70
2023/12/19 07:27:40;;;;;;;17.33;6.60;;;9.70;99.90;;;;;;5072960;28;20070;-76
2023/12/19 07:30:06;;;;;;;15.05;6.93;;;10.40;99.90;;;;;;5072327;28;20049;-74
2023/12/19 07:32:32;;;;;;;11.63;5.95;;;9.40;99.90;;;;;;5073803;28;20098;-74
2023/12/19 07:34:57;;;;;;;12.40;5.32;;;9.70;99.90;;;;;;5074698;28;20488;-75
2023/12/19 07:37:23;;;;;;;11.07;5.53;;;9.40;99.90;;;;;;5072033;28;20044;-75
2023/12/19 07:39:48;;;;;;;12.18;5.78;;;9.50;99.90;;;;;;5073540;28;20049;-73
2023/12/19 07:42:14;;;;;;;10.20;4.82;;;9.60;99.90;;;;;;5072273;28;20080;-78
2023/12/19 07:44:41;;;;;;;10.02;5.30;;;9.50;99.90;;;;;;5071646;28;20055;-74
2023/12/19 07:47:07;;;;;;;10.80;5.80;;;9.50;99.90;;;;;;5072391;28;20074;-76
2023/12/19 07:49:32;;;;;;;13.02;5.43;;;9.50;99.90;;;;;;5073557;28;20484;-77
2023/12/19 07:51:58;;;;;;;9.35;5.20;;;9.90;99.90;;;;;;5072232;28;20048;-76
2023/12/19 07:54:24;;;;;;;11.55;5.22;;;9.50;99.90;;;;;;5072468;28;20124;-77
2023/12/19 07:56:50;;;;;;;11.30;4.95;;;9.50;99.90;;;;;;5072056;28;20630;-77
2023/12/19 07:59:15;;;;;;;11.77;4.85;;;9.40;99.90;;;;;;5072200;28;20052;-79
2023/12/19 08:01:47;;;;;;;11.40;5.75;;;9.40;99.90;;;;;;5072105;28;20055;-73
2023/12/19 08:04:13;;;;;;;8.30;4.63;;;9.40;99.90;;;;;;5070289;28;20193;-79
2023/12/19 08:06:40;;;;;;;12.20;5.25;;;9.90;99.90;;;;;;5066753;28;20479;-76
2023/12/19 08:09:10;;;;;;;12.77;5.97;;;9.40;99.90;;;;;;5069731;28;20044;-77
2023/12/19 08:11:36;;;;;;;14.93;6.00;;;9.40;99.90;;;;;;5070669;28;20044;-75
2023/12/19 08:14:02;;;;;;;12.18;5.90;;;9.40;99.90;;;;;;5070790;28;20043;-77
2023/12/19 08:16:27;;;;;;;14.68;6.25;;;9.40;99.90;;;;;;5071371;28;20454;-78
2023/12/19 08:18:53;;;;;;;11.55;5.63;;;9.30;99.90;;;;;;5072164;28;20079;-76
2023/12/19 08:21:19;;;;;;;11.23;4.97;;;9.40;99.90;;;;;;5070309;28;20127;-78
2023/12/19 08:23:48;;;;;;;11.70;5.18;;;9.40;99.90;;;;;;5070391;28;20041;-75
2023/12/19 08:26:14;;;;;;;11.23;5.20;;;9.50;99.90;;;;;;5071128;28;20404;-71
2023/12/19 08:28:39;;;;;;;12.73;5.40;;;9.40;99.90;;;;;;5071559;28;20040;-71
2023/12/19 08:31:05;;;;;;;11.52;5.85;;;9.50;99.90;;;;;;5070823;28;20422;-73
2023/12/19 08:33:30;;;;;;;11.52;6.13;;;9.40;99.90;;;;;;5070238;28;20052;-75
2023/12/19 08:35:56;;;;;;;10.93;5.70;;;10.40;99.90;;;;;;5096200;28;20373;-73
2023/12/19 08:38:22;;;;;;;13.93;5.65;;;10.30;99.90;;;;;;5071187;28;20484;-71
2023/12/19 08:40:47;;;;;;;13.07;5.00;;;9.50;99.90;;;;;;5070852;28;20067;-76
2023/12/19 08:43:13;;;;;;;13.30;6.10;;;9.50;99.90;;;;;;5071723;28;20452;-74
2023/12/19 08:45:38;;;;;;;14.07;5.38;;;9.40;99.90;;;;;;5072472;28;20535;-74
2023/12/19 08:48:05;;;;;;;15.63;6.22;;;9.50;99.90;;;;;;5072874;28;20036;-74
2023/12/19 08:50:33;;;;;;;14.85;6.25;;;9.40;99.90;;;;;;5067942;28;20142;-73
2023/12/19 08:52:59;;;;;;;14.18;5.47;;;9.40;99.90;;;;;;5069357;28;20118;-73
2023/12/19 08:55:24;;;;;;;15.57;6.55;;;9.70;99.90;;;;;;5070605;28;20899;-74
2023/12/19 08:57:50;;;;;;;15.38;6.03;;;9.60;99.90;;;;;;5071026;28;20056;-72
2023/12/19 09:00:17;;;;;;;18.58;8.23;;;9.70;99.90;;;;;;5070743;28;20040;-73
2023/12/19 09:02:43;;;;;;;16.80;6.60;;;9.60;99.90;;;;;;5072755;28;20040;-72
2023/12/19 09:05:17;;;;;;;19.20;6.38;;;9.80;99.90;;;;;;5071277;28;20048;-71
2023/12/19 09:07:46;;;;;;;15.65;7.32;;;10.10;99.90;;;;;;5071593;28;20059;-75
2023/12/19 09:10:12;;;;;;;15.65;7.97;;;9.80;99.90;;;;;;5071310;28;20037;-72
2023/12/19 09:12:38;;;;;;;17.50;6.90;;;9.60;99.90;;;;;;5068222;28;20032;-72
2023/12/19 09:15:06;;;;;;;26.13;11.60;;;9.60;99.90;;;;;;5076735;28;20036;-72
2023/12/19 09:17:31;;;;;;;23.77;13.80;;;9.70;99.90;;;;;;5078094;28;20075;-71
2023/12/19 09:19:58;;;;;;;19.95;8.88;;;10.00;99.90;;;;;;5074507;28;20476;-73
2023/12/19 09:22:25;;;;;;;17.50;7.15;;;9.80;99.90;;;;;;5068007;28;20125;-75
2023/12/19 09:24:51;;;;;;;22.73;9.77;;;9.90;99.90;;;;;;5069116;28;20082;-72
2023/12/19 09:27:19;;;;;;;24.83;13.30;;;10.00;99.90;;;;;;5069079;28;20079;-73
2023/12/19 09:29:45;;;;;;;22.75;11.20;;;9.80;99.90;;;;;;5066087;28;20063;-72
2023/12/19 09:32:12;;;;;;;30.70;18.38;;;10.30;99.90;;;;;;5067077;28;20578;-71
2023/12/19 09:34:39;;;;;;;15.82;9.57;;;9.90;99.90;;;;;;5099703;28;20051;-73
2023/12/19 09:37:05;;;;;;;27.45;12.40;;;10.00;99.90;;;;;;5078820;28;20480;-72
2023/12/19 09:39:31;;;;;;;23.77;12.70;;;10.00;99.90;;;;;;5068570;28;20061;-72
2023/12/19 09:41:58;;;;;;;16.65;7.30;;;10.20;99.90;;;;;;5070798;28;20049;-72
2023/12/19 09:44:26;;;;;;;12.05;6.45;;;10.30;99.90;;;;;;5071028;28;20044;-73
2023/12/19 09:46:53;;;;;;;15.38;6.75;;;10.50;99.90;;;;;;5071087;28;20055;-72
2023/12/19 09:49:22;;;;;;;13.30;6.68;;;10.00;99.90;;;;;;5069373;28;20052;-71
2023/12/19 09:51:52;;;;;;;16.30;6.85;;;10.00;99.90;;;;;;5064369;28;20049;-72
2023/12/19 09:54:22;;;;;;;15.45;6.70;;;10.70;99.90;;;;;;5066433;28;20044;-71
2023/12/19 09:56:56;;;;;;;17.75;6.43;;;10.40;99.90;;;;;;5070150;28;20032;-74
2023/12/19 09:59:22;;;;;;;14.38;6.50;;;10.40;99.90;;;;;;5069421;28;20037;-71
2023/12/19 10:01:48;;;;;;;21.40;11.80;;;10.10;99.90;;;;;;5070358;28;20049;-71
2023/12/19 10:04:13;;;;;;;13.15;6.47;;;10.60;99.90;;;;;;5069062;28;20041;-71
2023/12/19 10:07:00;;;;;;;13.65;5.70;;;10.10;99.90;;;;;;5066179;28;20051;-70
2023/12/19 10:09:25;;;;;;;8.73;5.22;;;10.10;99.90;;;;;;5065140;28;20098;-69
2023/12/19 10:12:11;;;;;;;8.23;4.90;;;10.20;99.90;;;;;;5067948;28;20053;-70
2023/12/19 10:14:37;;;;;;;9.43;5.50;;;10.10;99.90;;;;;;5070305;28;20476;-70
2023/12/19 10:17:14;;;;;;;7.80;3.78;;;10.10;99.90;;;;;;5068775;28;20044;-72
2023/12/19 10:19:40;;;;;;;7.68;3.50;;;10.10;99.90;;;;;;5065019;28;20040;-72
2023/12/19 10:22:16;;;;;;;13.13;4.85;;;10.20;99.90;;;;;;5065355;28;20032;-71
2023/12/19 10:24:42;;;;;;;8.25;5.15;;;10.10;99.90;;;;;;5063286;28;20052;-71
2023/12/19 10:27:08;;;;;;;10.05;4.88;;;10.20;99.90;;;;;;5066718;28;20071;-72
2023/12/19 10:29:36;;;;;;;10.93;4.93;;;10.20;99.90;;;;;;5070648;28;20048;-72
2023/12/19 10:32:16;;;;;;;11.70;4.93;;;10.20;99.90;;;;;;5069609;28;20036;-70
2023/12/19 10:34:42;;;;;;;11.60;5.90;;;10.20;99.90;;;;;;5067501;28;20132;-72
2023/12/19 10:37:17;;;;;;;10.65;6.03;;;10.20;99.90;;;;;;5069517;28;20455;-71
2023/12/19 10:39:44;;;;;;;14.18;6.18;;;10.20;99.90;;;;;;5074872;28;20050;-72
2023/12/19 10:42:10;;;;;;;16.05;7.80;;;10.30;99.90;;;;;;5073115;28;20507;-72
2023/12/19 10:44:40;;;;;;;10.93;6.18;;;10.20;99.90;;;;;;5073969;28;20162;-72
2023/12/19 10:47:10;;;;;;;12.82;6.32;;;10.30;99.90;;;;;;5072887;28;20551;-73
2023/12/19 10:49:39;;;;;;;12.88;6.72;;;10.70;99.90;;;;;;5073900;28;20128;-71
2023/12/19 10:52:09;;;;;;;12.82;5.97;;;10.30;99.90;;;;;;5073543;28;20450;-73
2023/12/19 10:54:35;;;;;;;8.70;5.13;;;10.30;99.90;;;;;;5071043;28;20051;-72
2023/12/19 10:57:08;;;;;;;10.50;5.90;;;10.20;99.90;;;;;;5072889;28;20140;-71
2023/12/19 10:59:52;;;;;;;10.52;6.15;;;10.20;99.90;;;;;;5073285;28;20049;-71
2023/12/19 11:02:25;;;;;;;9.77;5.40;;;10.20;99.90;;;;;;5073099;28;20496;-71
2023/12/19 11:05:05;;;;;;;13.30;6.80;;;10.20;99.90;;;;;;5073542;28;20396;-72
2023/12/19 11:07:34;;;;;;;8.50;4.78;;;10.20;99.90;;;;;;5065532;28;20052;-70
2023/12/19 11:10:06;;;;;;;8.95;4.95;;;10.20;99.90;;;;;;5068754;28;20041;-72
2023/12/19 11:12:36;;;;;;;7.68;3.67;;;10.20;99.90;;;;;;5071999;28;20044;-72
2023/12/19 11:15:03;;;;;;;6.10;3.40;;;10.60;99.90;;;;;;5071762;28;20036;-74
2023/12/19 11:17:47;;;;;;;6.35;3.30;;;10.20;99.90;;;;;;5073710;28;20133;-75
2023/12/19 11:20:21;;;;;;;6.57;3.70;;;10.10;99.90;;;;;;5073236;28;20124;-70
2023/12/19 11:23:17;;;;;;;5.15;3.10;;;10.10;99.90;;;;;;5072978;28;20048;-72
2023/12/19 11:25:54;;;;;;;4.78;2.60;;;10.10;99.90;;;;;;5070987;28;20068;-72
2023/12/19 11:28:20;;;;;;;5.10;2.20;;;10.00;99.90;;;;;;5071730;28;20041;-72
2023/12/19 11:30:45;;;;;;;3.78;1.85;;;10.10;99.90;;;;;;5074237;28;20036;-70
2023/12/19 11:33:13;;;;;;;5.80;2.33;;;10.00;99.90;;;;;;5072261;28;20193;-71
2023/12/19 11:35:41;;;;;;;4.55;2.42;;;10.00;99.90;;;;;;5072192;28;20086;-71
2023/12/19 11:38:25;;;;;;;3.70;2.30;;;10.70;99.90;;;;;;5073132;28;20048;-74
2023/12/19 11:40:57;;;;;;;4.00;2.65;;;9.90;99.90;;;;;;5069084;28;20519;-74
2023/12/19 11:43:32;;;;;;;3.25;1.45;;;9.90;99.90;;;;;;5071000;28;20086;-75
2023/12/19 11:45:58;;;;;;;2.88;1.60;;;9.90;99.90;;;;;;5070398;28;20043;-75
2023/12/19 11:48:37;;;;;;;3.25;1.55;;;9.90;99.90;;;;;;5060026;28;20063;-75
2023/12/19 11:51:09;;;;;;;3.72;1.42;;;9.90;99.90;;;;;;5072487;28;20040;-75
2023/12/19 11:53:38;;;;;;;3.45;1.73;;;9.90;99.90;;;;;;5072546;28;20377;-74
2023/12/19 11:56:08;;;;;;;5.20;1.75;;;10.20;99.90;;;;;;5071884;28;20036;-75
2023/12/19 11:58:34;;;;;;;5.78;2.22;;;9.90;99.90;;;;;;5072679;28;20403;-75
2023/12/19 12:01:02;;;;;;;5.72;3.70;;;9.90;99.90;;;;;;5071903;28;20044;-75
2023/12/19 12:03:28;;;;;;;4.72;3.20;;;9.80;99.90;;;;;;5071834;28;20056;-74
2023/12/19 12:05:54;;;;;;;4.18;1.60;;;9.80;99.90;;;;;;5065601;28;20051;-73
2023/12/19 12:08:21;;;;;;;4.05;1.42;;;9.80;99.90;;;;;;5066380;28;20044;-74
2023/12/19 12:11:07;;;;;;;3.22;1.50;;;9.90;99.90;;;;;;5071003;28;20411;-76
2023/12/19 12:13:37;;;;;;;2.50;1.02;;;9.80;99.90;;;;;;5088604;27;20051;-76
2023/12/19 12:16:04;;;;;;;2.90;1.20;;;9.90;99.90;;;;;;5070973;28;20067;-75
2023/12/19 12:18:32;;;;;;;5.40;1.60;;;9.80;99.90;;;;;;5061375;28;20051;-75
2023/12/19 12:21:08;;;;;;;5.68;2.17;;;10.20;99.90;;;;;;5083830;28;20499;-75
2023/12/19 12:23:34;;;;;;;6.18;2.03;;;9.80;99.90;;;;;;5074973;28;20071;-74
2023/12/19 12:26:00;;;;;;;6.05;1.63;;;9.70;99.90;;;;;;5071387;28;20127;-81
2023/12/19 12:28:27;;;;;;;4.47;2.17;;;10.50;99.90;;;;;;5072616;28;20059;-74
2023/12/19 12:30:57;;;;;;;5.43;1.77;;;9.70;99.90;;;;;;5090018;28;20084;-75
2023/12/19 12:33:24;;;;;;;5.82;2.20;;;9.70;99.90;;;;;;5071377;28;20036;-75
2023/12/19 12:35:50;;;;;;;6.55;1.88;;;9.60;99.90;;;;;;5068357;28;20432;-75
2023/12/19 12:38:20;;;;;;;6.55;2.00;;;9.60;99.90;;;;;;5068815;28;20079;-75
2023/12/19 12:40:55;;;;;;;6.20;3.55;;;9.60;99.90;;;;;;5064975;28;20068;-73
2023/12/19 12:43:43;;;;;;;6.80;2.35;;;9.60;99.90;;;;;;5094604;28;20059;-74
2023/12/19 12:46:14;;;;;;;6.18;1.67;;;9.50;99.90;;;;;;5087233;28;20056;-74
2023/12/19 12:48:58;;;;;;;4.70;1.80;;;9.60;99.90;;;;;;5065277;28;20052;-74